Time;durP1;ratioP1;P1;durP2;ratioP2;P2;SDS_P1;SDS_P2;PMS_P1;PMS_P2;Temp;Humidity;BMP_temperature;BMP_pressure;BME280_temperature;BME280_humidity;BME280_pressure;Samples;Min_cycle;Max_cycle;Signal;HPM_P1;HPM_P2
2021/09/13 00:02:35;;;;;;;;;;;;;;;;;;5041510;28;19920;-70
2021/09/13 00:05:22;;;;;;;;;;;;;;;;;;5043864;28;19932;-70
2021/09/13 00:08:07;;;;;;;;;;;;;;;;;;5047023;28;19936;-70
2021/09/13 00:10:51;;;;;;;;;;;;;;;;;;5046749;28;19932;-69
2021/09/13 00:13:36;;;;;;;;;;;;;;;;;;5048599;28;19920;-69
2021/09/13 00:16:23;;;;;;;;;;;;;;;;;;5047884;28;19920;-69
2021/09/13 00:19:07;;;;;;;;;;;;;;;;;;5045505;28;19927;-68
2021/09/13 00:21:52;;;;;;;;;;;;;;;;;;5045542;28;19920;-68
2021/09/13 00:24:38;;;;;;;;;;;;;;;;;;5045595;28;20292;-68
2021/09/13 00:27:23;;;;;;;;;;;;;;;;;;5044686;28;19921;-68
2021/09/13 00:30:08;;;;;;;;;;;;;;;;;;5045790;28;19919;-68
2021/09/13 00:32:53;;;;;;;;;;;;;;;;;;5043959;28;19924;-70
2021/09/13 00:35:37;;;;;;;;;;;;;;;;;;5044870;28;19920;-70
2021/09/13 00:38:22;;;;;;;;;;;;;;;;;;5043867;28;20301;-70
2021/09/13 00:41:08;;;;;;;;;;;;;;;;;;5044561;28;20303;-69
2021/09/13 00:43:52;;;;;;;;;;;;;;;;;;5043671;28;19921;-69
2021/09/13 00:46:37;;;;;;;;;;;;;;;;;;5043775;28;19921;-69
2021/09/13 00:49:22;;;;;;;;;;;;;;;;;;5044737;28;19924;-69
2021/09/13 00:52:06;;;;;;;;;;;;;;;;;;5044815;28;19931;-69
2021/09/13 00:54:51;;;;;;;;;;;;;;;;;;5045141;28;19927;-69
2021/09/13 00:57:35;;;;;;;;;;;;;;;;;;5043645;28;19921;-69
2021/09/13 01:00:20;;;;;;;;;;;;;;;;;;5044782;28;19924;-69
2021/09/13 01:03:04;;;;;;;;;;;;;;;;;;5044475;28;19920;-69
2021/09/13 01:05:49;;;;;;;;;;;;;;;;;;5045175;28;20300;-69
2021/09/13 01:08:33;;;;;;;;;;;;;;;;;;5044724;28;19924;-69
2021/09/13 01:11:17;;;;;;;;;;;;;;;;;;5043199;28;19924;-69
2021/09/13 01:14:02;;;;;;;;;;;;;;;;;;5045570;28;19921;-69
2021/09/13 01:16:46;;;;;;;;;;;;;;;;;;5046910;28;19920;-69
2021/09/13 01:19:30;;;;;;;;;;;;;;;;;;5046189;28;19922;-69
2021/09/13 01:22:14;;;;;;;;;;;;;;;;;;5042949;28;19920;-69
2021/09/13 01:25:08;;;;;;;;;;;;;;;;;;5044628;28;19936;-70
2021/09/13 01:27:52;;;;;;;;;;;;;;;;;;5042861;28;19920;-70
2021/09/13 01:30:40;;;;;;;;;;;;;;;;;;5044224;28;19920;-70
2021/09/13 01:33:24;;;;;;;;;;;;;;;;;;5046219;28;19936;-69
2021/09/13 01:36:08;;;;;;;;;;;;;;;;;;5031598;28;19920;-69
2021/09/13 01:38:52;;;;;;;;;;;;;;;;;;5043059;28;19919;-68
2021/09/13 01:41:37;;;;;;;;;;;;;;;;;;5047310;28;19920;-68
2021/09/13 01:44:24;;;;;;;;;;;;;;;;;;5045989;28;19920;-68
2021/09/13 01:47:08;;;;;;;;;;;;;;;;;;5047942;28;19919;-69
2021/09/13 01:49:52;;;;;;;;;;;;;;;;;;5048309;28;19920;-69
2021/09/13 01:52:36;;;;;;;;;;;;;;;;;;5042874;28;20323;-69
2021/09/13 01:55:21;;;;;;;;;;;;;;;;;;5042417;28;19925;-69
2021/09/13 01:58:05;;;;;;;;;;;;;;;;;;5042545;28;20296;-70
2021/09/13 02:00:49;;;;;;;;;;;;;;;;;;5049011;28;20387;-70
2021/09/13 02:03:33;;;;;;;;;;;;;;;;;;5041137;28;19928;-70
2021/09/13 02:06:19;;;;;;;;;;;;;;;;;;5061416;28;19919;-70
2021/09/13 02:09:03;;;;;;;;;;;;;;;;;;5029149;28;19923;-70
2021/09/13 02:11:48;;;;;;;;;;;;;;;;;;5047021;28;19924;-70
2021/09/13 02:14:33;;;;;;;;;;;;;;;;;;5049030;28;19920;-70
2021/09/13 02:17:17;;;;;;;;;;;;;;;;;;5039974;28;19920;-70
2021/09/13 02:20:02;;;;;;;;;;;;;;;;;;5044862;28;19920;-70
2021/09/13 02:22:47;;;;;;;;;;;;;;;;;;5050309;28;19946;-70
2021/09/13 02:25:32;;;;;;;;;;;;;;;;;;5051866;28;19919;-70
2021/09/13 02:28:16;;;;;;;;;;;;;;;;;;5039343;28;19919;-71
2021/09/13 02:31:01;;;;;;;;;;;;;;;;;;5039929;28;19924;-69
2021/09/13 02:33:45;;;;;;;;;;;;;;;;;;5061598;28;19920;-69
2021/09/13 02:36:32;;;;;;;;;;;;;;;;;;5044562;28;19928;-69
2021/09/13 02:39:17;;;;;;;;;;;;;;;;;;5052642;28;19920;-69
2021/09/13 02:42:04;;;;;;;;;;;;;;;;;;5046936;28;19936;-69
2021/09/13 02:44:48;;;;;;;;;;;;;;;;;;5041833;28;19920;-69
2021/09/13 02:47:32;;;;;;;;;;;;;;;;;;5043327;28;19921;-69
2021/09/13 02:50:17;;;;;;;;;;;;;;;;;;5031015;28;19920;-68
2021/09/13 02:53:01;;;;;;;;;;;;;;;;;;5048743;28;19927;-69
2021/09/13 02:55:45;;;;;;;;;;;;;;;;;;5025648;28;19942;-69
2021/09/13 02:58:29;;;;;;;;;;;;;;;;;;5031628;28;19922;-69
2021/09/13 03:01:13;;;;;;;;;;;;;;;;;;5048059;28;19920;-69
2021/09/13 03:03:58;;;;;;;;;;;;;;;;;;5042597;28;19927;-70
2021/09/13 03:06:42;;;;;;;;;;;;;;;;;;5040876;28;19920;-70
2021/09/13 03:09:26;;;;;;;;;;;;;;;;;;5043150;28;20304;-70
2021/09/13 03:12:12;;;;;;;;;;;;;;;;;;5029206;28;20397;-70
2021/09/13 03:15:01;;;;;;;;;;;;;;;;;;5052821;28;19924;-70
2021/09/13 03:17:46;;;;;;;;;;;;;;;;;;5037626;28;19920;-70
2021/09/13 03:20:30;;;;;;;;;;;;;;;;;;5045244;28;19928;-65
2021/09/13 03:23:14;;;;;;;;;;;;;;;;;;5043497;28;19920;-65
2021/09/13 03:25:58;;;;;;;;;;;;;;;;;;5045768;28;19935;-65
2021/09/13 03:28:46;;;;;;;;;;;;;;;;;;5042045;28;19920;-65
2021/09/13 03:31:31;;;;;;;;;;;;;;;;;;5047790;28;20281;-65
2021/09/13 03:34:15;;;;;;;;;;;;;;;;;;5045435;28;19920;-65
2021/09/13 03:37:02;;;;;;;;;;;;;;;;;;5043879;28;20282;-65
2021/09/13 03:39:47;;;;;;;;;;;;;;;;;;5048163;28;19920;-65
2021/09/13 03:42:33;;;;;;;;;;;;;;;;;;5044521;28;19920;-65
2021/09/13 03:45:17;;;;;;;;;;;;;;;;;;5046485;28;19928;-65
2021/09/13 03:48:13;;;;;;;;;;;;;;;;;;5043774;28;19920;-65
2021/09/13 03:51:01;;;;;;;;;;;;;;;;;;5047889;28;20404;-65
2021/09/13 03:53:46;;;;;;;;;;;;;;;;;;5041757;28;19925;-65
2021/09/13 03:56:30;;;;;;;;;;;;;;;;;;5048011;28;19920;-65
2021/09/13 03:59:14;;;;;;;;;;;;;;;;;;5046390;28;19920;-65
2021/09/13 04:01:59;;;;;;;;;;;;;;;;;;5049215;28;19920;-65
2021/09/13 04:04:47;;;;;;;;;;;;;;;;;;5049524;28;19919;-65
2021/09/13 04:07:38;;;;;;;;;;;;;;;;;;5043196;28;20288;-65
2021/09/13 04:13:50;;;;;;;;;;;;;;;;;;5066259;28;19936;-65
2021/09/13 04:16:41;;;;;;;;;;;;;;;;;;5046102;28;19984;-65
2021/09/13 04:19:52;;;;;;;;;;;;;;;;;;5047260;28;19932;-65
2021/09/13 04:22:48;;;;;;;;;;;;;;;;;;5044459;28;19919;-65
2021/09/13 04:25:54;;;;;;;;;;;;;;;;;;5049322;28;20418;-65
2021/09/13 04:28:49;;;;;;;;;;;;;;;;;;5048158;28;19920;-65
2021/09/13 04:32:12;;;;;;;;;;;;;;;;;;5048443;28;20411;-65
2021/09/13 04:35:31;;;;;;;;;;;;;;;;;;5034238;28;21016;-65
2021/09/13 04:38:29;;;;;;;;;;;;;;;;;;5046031;28;19920;-65
2021/09/13 04:41:36;;;;;;;;;;;;;;;;;;5045196;28;19935;-65
2021/09/13 04:44:44;;;;;;;;;;;;;;;;;;5047681;28;19920;-65
2021/09/13 04:47:47;;;;;;;;;;;;;;;;;;5045857;28;20411;-65
2021/09/13 04:51:00;;;;;;;;;;;;;;;;;;5045648;28;19920;-65
2021/09/13 04:54:17;;;;;;;;;;;;;;;;;;5045103;28;20388;-65
2021/09/13 04:57:01;;;;;;;;;;;;;;;;;;5048587;28;19924;-65
2021/09/13 04:59:46;;;;;;;;;;;;;;;;;;5045944;28;19921;-65
2021/09/13 05:02:30;;;;;;;;;;;;;;;;;;5043626;28;19920;-65
2021/09/13 05:05:15;;;;;;;;;;;;;;;;;;5043546;28;20308;-65
2021/09/13 05:07:59;;;;;;;;;;;;;;;;;;5044416;28;19920;-67
2021/09/13 05:10:43;;;;;;;;;;;;;;;;;;5052756;28;19920;-66
2021/09/13 05:13:28;;;;;;;;;;;;;;;;;;5052081;28;19924;-66
2021/09/13 05:16:12;;;;;;;;;;;;;;;;;;5043894;28;19928;-66
2021/09/13 05:18:58;;;;;;;;;;;;;;;;;;5045402;28;20288;-66
2021/09/13 05:21:42;;;;;;;;;;;;;;;;;;5050697;28;20416;-66
2021/09/13 05:24:31;;;;;;;;;;;;;;;;;;5047964;28;19928;-64
2021/09/13 05:27:21;;;;;;;;;;;;;;;;;;5043303;28;19928;-63
2021/09/13 05:30:05;;;;;;;;;;;;;;;;;;5041549;28;19923;-63
2021/09/13 05:32:51;;;;;;;;;;;;;;;;;;5042703;28;19932;-63
2021/09/13 05:35:35;;;;;;;;;;;;;;;;;;5046552;28;19936;-63
2021/09/13 05:38:22;;;;;;;;;;;;;;;;;;5044136;28;19921;-63
2021/09/13 05:41:06;;;;;;;;;;;;;;;;;;5044210;28;20332;-63
2021/09/13 05:43:51;;;;;;;;;;;;;;;;;;5048547;28;20144;-63
2021/09/13 05:46:35;;;;;;;;;;;;;;;;;;5041554;28;19924;-63
2021/09/13 05:49:20;;;;;;;;;;;;;;;;;;5047076;28;19916;-63
2021/09/13 05:52:07;;;;;;;;;;;;;;;;;;5044473;28;19924;-63
2021/09/13 05:55:04;;;;;;;;;;;;;;;;;;5047571;28;19920;-63
2021/09/13 05:57:48;;;;;;;;;;;;;;;;;;5042626;28;19920;-63
2021/09/13 06:00:33;;;;;;;;;;;;;;;;;;5045012;28;19927;-63
2021/09/13 06:03:17;;;;;;;;;;;;;;;;;;5046833;28;19936;-65
2021/09/13 06:06:15;;;;;;;;;;;;;;;;;;5046318;28;20126;-65
2021/09/13 06:09:00;;;;;;;;;;;;;;;;;;5042621;28;20284;-65
2021/09/13 06:11:46;;;;;;;;;;;;;;;;;;5046750;28;19924;-66
2021/09/13 06:14:30;;;;;;;;;;;;;;;;;;5032004;28;19920;-66
2021/09/13 06:17:16;;;;;;;;;;;;;;;;;;5043923;28;19920;-66
2021/09/13 06:20:02;;;;;;;;;;;;;;;;;;5046853;28;19924;-65
2021/09/13 06:22:47;;;;;;;;;;;;;;;;;;5043006;28;19921;-65
2021/09/13 06:25:34;;;;;;;;;;;;;;;;;;5044517;28;19987;-65
2021/09/13 06:28:18;;;;;;;;;;;;;;;;;;5042310;28;19945;-66
2021/09/13 06:31:03;;;;;;;;;;;;;;;;;;5044725;28;19936;-66
2021/09/13 06:33:49;;;;;;;;;;;;;;;;;;5044005;28;20288;-66
2021/09/13 06:36:33;;;;;;;;;;;;;;;;;;5042883;28;20280;-65
2021/09/13 06:39:17;;;;;;;;;;;;;;;;;;5044203;28;19920;-66
2021/09/13 06:42:02;;;;;;;;;;;;;;;;;;5043026;28;20408;-66
2021/09/13 06:44:55;;;;;;;;;;;;;;;;;;5048078;28;19924;-66
2021/09/13 06:47:46;;;;;;;;;;;;;;;;;;5044277;28;20123;-66
2021/09/13 06:50:30;;;;;;;;;;;;;;;;;;5043860;28;19921;-65
2021/09/13 06:53:14;;;;;;;;;;;;;;;;;;5046650;28;19939;-65
2021/09/13 06:55:59;;;;;;;;;;;;;;;;;;5042945;28;19988;-65
2021/09/13 06:58:43;;;;;;;;;;;;;;;;;;5040247;28;19920;-65
2021/09/13 07:01:27;;;;;;;;;;;;;;;;;;5041577;28;19920;-65
2021/09/13 07:04:11;;;;;;;;;;;;;;;;;;5041155;28;19944;-65
2021/09/13 07:06:55;;;;;;;;;;;;;;;;;;5041025;28;19936;-65
2021/09/13 07:09:40;;;;;;;;;;;;;;;;;;5041295;28;19940;-65
2021/09/13 07:12:24;;;;;;;;;;;;;;;;;;5041882;28;19924;-66
2021/09/13 07:15:08;;;;;;;;;;;;;;;;;;5042547;28;19924;-66
2021/09/13 07:17:53;;;;;;;;;;;;;;;;;;5042908;28;19920;-66
2021/09/13 07:20:38;;;;;;;;;;;;;;;;;;5042614;28;19920;-65
2021/09/13 07:23:22;;;;;;;;;;;;;;;;;;5042214;28;19920;-65
2021/09/13 07:26:06;;;;;;;;;;;;;;;;;;5048196;28;19928;-66
2021/09/13 07:28:50;;;;;;;;;;;;;;;;;;5042718;28;19921;-66
2021/09/13 07:31:35;;;;;;;;;;;;;;;;;;5043874;28;19924;-65
2021/09/13 07:34:19;;;;;;;;;;;;;;;;;;5042816;28;19936;-65
2021/09/13 07:37:03;;;;;;;;;;;;;;;;;;5041783;28;19920;-66
2021/09/13 07:39:47;;;;;;;;;;;;;;;;;;5041402;28;19935;-65
2021/09/13 07:42:31;;;;;;;;;;;;;;;;;;5040533;28;19928;-66
2021/09/13 07:45:15;;;;;;;;;;;;;;;;;;5040620;28;19921;-65
2021/09/13 07:47:59;;;;;;;;;;;;;;;;;;5044646;28;20323;-66
2021/09/13 07:50:44;;;;;;;;;;;;;;;;;;5050985;28;19920;-65
2021/09/13 07:53:28;;;;;;;;;;;;;;;;;;5049968;28;19940;-66
2021/09/13 07:56:12;;;;;;;;;;;;;;;;;;5046420;28;19920;-65
2021/09/13 07:58:56;;;;;;;;;;;;;;;;;;5046398;28;20256;-65
2021/09/13 08:01:41;;;;;;;;;;;;;;;;;;5045704;28;19920;-65
2021/09/13 08:04:25;;;;;;;;;;;;;;;;;;5045300;28;19919;-66
2021/09/13 08:07:09;;;;;;;;;;;;;;;;;;5045374;28;19920;-66
2021/09/13 08:09:53;;;;;;;;;;;;;;;;;;5045122;28;19923;-66
2021/09/13 08:12:37;;;;;;;;;;;;;;;;;;5044137;28;19989;-66
2021/09/13 08:15:23;;;;;;;;;;;;;;;;;;5042866;28;19936;-66
2021/09/13 08:18:10;;;;;;;;;;;;;;;;;;5043755;28;19920;-66
2021/09/13 08:20:55;;;;;;;;;;;;;;;;;;5046792;28;19920;-66
2021/09/13 08:23:42;;;;;;;;;;;;;;;;;;5044174;28;19924;-66
2021/09/13 08:26:26;;;;;;;;;;;;;;;;;;5044361;28;19979;-66
2021/09/13 08:29:14;;;;;;;;;;;;;;;;;;5048883;28;20292;-66
2021/09/13 08:31:59;;;;;;;;;;;;;;;;;;5045442;28;19923;-66
2021/09/13 08:34:43;;;;;;;;;;;;;;;;;;5045426;28;19920;-66
2021/09/13 08:37:27;;;;;;;;;;;;;;;;;;5049577;28;19920;-66
2021/09/13 08:40:11;;;;;;;;;;;;;;;;;;5051582;28;20431;-66
2021/09/13 08:42:56;;;;;;;;;;;;;;;;;;5045879;28;19920;-66
2021/09/13 08:45:48;;;;;;;;;;;;;;;;;;5049605;28;19920;-66
2021/09/13 08:51:30;;;;;;;;;;;;;;;;;;5037668;28;20293;-66
2021/09/13 08:54:14;;;;;;;;;;;;;;;;;;5049122;28;19920;-66
2021/09/13 08:57:02;;;;;;;;;;;;;;;;;;5038682;28;19920;-66
2021/09/13 08:59:47;;;;;;;;;;;;;;;;;;5039430;28;19920;-63
2021/09/13 09:02:31;;;;;;;;;;;;;;;;;;5045178;28;19920;-66
2021/09/13 09:05:15;;;;;;;;;;;;;;;;;;5039984;28;19940;-67
2021/09/13 09:07:59;;;;;;;;;;;;;;;;;;5044839;28;19920;-66
2021/09/13 09:10:43;;;;;;;;;;;;;;;;;;5044004;28;19920;-67
2021/09/13 09:13:27;;;;;;;;;;;;;;;;;;5043502;28;19923;-68
2021/09/13 09:16:12;;;;;;;;;;;;;;;;;;5042955;28;19928;-67
2021/09/13 09:18:56;;;;;;;;;;;;;;;;;;5042833;28;19920;-67
2021/09/13 09:21:43;;;;;;;;;;;;;;;;;;5044419;28;20098;-67
2021/09/13 09:24:27;;;;;;;;;;;;;;;;;;5046932;28;19921;-68
2021/09/13 09:27:12;;;;;;;;;;;;;;;;;;5047128;28;19927;-68
2021/09/13 09:29:56;;;;;;;;;;;;;;;;;;5046728;28;20285;-67
2021/09/13 09:32:42;;;;;;;;;;;;;;;;;;5044086;28;19924;-66
2021/09/13 09:35:26;;;;;;;;;;;;;;;;;;5044158;28;19920;-67
2021/09/13 09:38:10;;;;;;;;;;;;;;;;;;5045528;28;19920;-67
2021/09/13 09:40:54;;;;;;;;;;;;;;;;;;5044440;28;20019;-67
2021/09/13 09:43:39;;;;;;;;;;;;;;;;;;5045074;28;19920;-67
2021/09/13 09:46:24;;;;;;;;;;;;;;;;;;5051568;28;19919;-68
2021/09/13 09:49:08;;;;;;;;;;;;;;;;;;5042571;28;20284;-66
2021/09/13 09:51:52;;;;;;;;;;;;;;;;;;5045091;28;19928;-67
2021/09/13 09:54:37;;;;;;;;;;;;;;;;;;5044271;28;20287;-67
2021/09/13 09:57:21;;;;;;;;;;;;;;;;;;5044768;28;20616;-67
2021/09/13 10:00:06;;;;;;;;;;;;;;;;;;5043369;28;20404;-67
2021/09/13 10:02:57;;;;;;;;;;;;;;;;;;5042474;28;19920;-67
2021/09/13 10:05:41;;;;;;;;;;;;;;;;;;5042396;28;19920;-67
2021/09/13 10:08:25;;;;;;;;;;;;;;;;;;5047322;28;19924;-68
2021/09/13 10:11:09;;;;;;;;;;;;;;;;;;5043942;28;19920;-67
2021/09/13 10:13:53;;;;;;;;;;;;;;;;;;5041965;28;19924;-67
2021/09/13 10:16:37;;;;;;;;;;;;;;;;;;5041886;28;19936;-67
2021/09/13 10:19:21;;;;;;;;;;;;;;;;;;5042574;28;19936;-67
2021/09/13 10:22:06;;;;;;;;;;;;;;;;;;5042812;28;19924;-67
2021/09/13 10:24:50;;;;;;;;;;;;;;;;;;5043896;28;20285;-67
2021/09/13 10:27:34;;;;;;;;;;;;;;;;;;5043583;28;19924;-67
2021/09/13 10:30:18;;;;;;;;;;;;;;;;;;5043522;28;19927;-67
2021/09/13 10:33:03;;;;;;;;;;;;;;;;;;5042581;28;19923;-67
2021/09/13 10:35:47;;;;;;;;;;;;;;;;;;5044510;28;19936;-67
2021/09/13 10:38:31;;;;;;;;;;;;;;;;;;5043842;28;19920;-67
2021/09/13 10:41:15;;;;;;;;;;;;;;;;;;5041219;28;19920;-67
2021/09/13 10:44:00;;;;;;;;;;;;;;;;;;5049457;28;19919;-67
2021/09/13 10:46:44;;;;;;;;;;;;;;;;;;5042902;28;20395;-68
2021/09/13 10:49:31;;;;;;;;;;;;;;;;;;5041617;28;19920;-67
2021/09/13 10:52:15;;;;;;;;;;;;;;;;;;5040954;28;19940;-67
2021/09/13 10:54:59;;;;;;;;;;;;;;;;;;5041798;28;19919;-67
2021/09/13 10:57:43;;;;;;;;;;;;;;;;;;5041995;28;19920;-67
2021/09/13 11:00:27;;;;;;;;;;;;;;;;;;5043115;28;19921;-67
2021/09/13 11:03:11;;;;;;;;;;;;;;;;;;5043232;28;19920;-68
2021/09/13 11:05:56;;;;;;;;;;;;;;;;;;5044345;28;19920;-67
2021/09/13 11:08:41;;;;;;;;;;;;;;;;;;5046760;28;19924;-67
2021/09/13 11:11:26;;;;;;;;;;;;;;;;;;5043000;28;20420;-68
2021/09/13 11:14:10;;;;;;;;;;;;;;;;;;5042028;28;19924;-68
2021/09/13 11:16:55;;;;;;;;;;;;;;;;;;5045603;28;19936;-68
2021/09/13 11:19:39;;;;;;;;;;;;;;;;;;5047782;28;19919;-68
2021/09/13 11:22:23;;;;;;;;;;;;;;;;;;5045461;28;19920;-67
2021/09/13 11:25:08;;;;;;;;;;;;;;;;;;5046638;28;19936;-68
2021/09/13 11:27:53;;;;;;;;;;;;;;;;;;5045916;28;19944;-67
2021/09/13 11:30:39;;;;;;;;;;;;;;;;;;5039709;28;19936;-68
2021/09/13 11:33:23;;;;;;;;;;;;;;;;;;5045941;28;19939;-67
2021/09/13 11:36:07;;;;;;;;;;;;;;;;;;5043874;28;20237;-68
2021/09/13 11:38:52;;;;;;;;;;;;;;;;;;5045986;28;20470;-68
2021/09/13 11:41:36;;;;;;;;;;;;;;;;;;5045500;28;20400;-68
2021/09/13 11:44:21;;;;;;;;;;;;;;;;;;5042825;28;19920;-68
2021/09/13 11:47:06;;;;;;;;;;;;;;;;;;5047108;28;19923;-68
2021/09/13 11:49:51;;;;;;;;;;;;;;;;;;5042411;28;19920;-68
2021/09/13 11:52:38;;;;;;;;;;;;;;;;;;5040662;28;19924;-68
2021/09/13 11:55:27;;;;;;;;;;;;;;;;;;5041345;28;19924;-67
2021/09/13 11:58:11;;;;;;;;;;;;;;;;;;5042267;28;19936;-66
2021/09/13 12:00:55;;;;;;;;;;;;;;;;;;5044475;28;20406;-67
2021/09/13 12:03:39;;;;;;;;;;;;;;;;;;5044335;28;19920;-67
2021/09/13 12:06:24;;;;;;;;;;;;;;;;;;5035698;28;19920;-66
2021/09/13 12:09:09;;;;;;;;;;;;;;;;;;5034432;28;19924;-65
2021/09/13 12:11:53;;;;;;;;;;;;;;;;;;5040189;28;19944;-65
2021/09/13 12:14:37;;;;;;;;;;;;;;;;;;5047778;28;19920;-65
2021/09/13 12:17:21;;;;;;;;;;;;;;;;;;5041799;28;19979;-65
2021/09/13 12:20:05;;;;;;;;;;;;;;;;;;5040512;28;19924;-65
2021/09/13 12:22:51;;;;;;;;;;;;;;;;;;5044053;28;19920;-65
2021/09/13 12:25:36;;;;;;;;;;;;;;;;;;5041676;28;19924;-66
2021/09/13 12:28:20;;;;;;;;;;;;;;;;;;5041005;28;19920;-63
2021/09/13 12:31:04;;;;;;;;;;;;;;;;;;5042698;28;19924;-65
2021/09/13 12:33:51;;;;;;;;;;;;;;;;;;5044654;28;19924;-67
2021/09/13 12:36:36;;;;;;;;;;;;;;;;;;5048788;28;20022;-66
2021/09/13 12:39:20;;;;;;;;;;;;;;;;;;5045600;28;20403;-66
2021/09/13 12:42:04;;;;;;;;;;;;;;;;;;5049767;28;19920;-66
2021/09/13 12:44:49;;;;;;;;;;;;;;;;;;5048012;28;20400;-65
2021/09/13 12:47:33;;;;;;;;;;;;;;;;;;5045756;28;19931;-65
2021/09/13 12:50:17;;;;;;;;;;;;;;;;;;5051466;28;19924;-65
2021/09/13 12:53:01;;;;;;;;;;;;;;;;;;5043862;28;19932;-65
2021/09/13 12:55:45;;;;;;;;;;;;;;;;;;5044444;28;19920;-65
2021/09/13 12:58:29;;;;;;;;;;;;;;;;;;5048692;28;19920;-65
2021/09/13 13:01:14;;;;;;;;;;;;;;;;;;5047265;28;19920;-65
2021/09/13 13:03:59;;;;;;;;;;;;;;;;;;5043398;28;19936;-66
2021/09/13 13:06:43;;;;;;;;;;;;;;;;;;5043220;28;19921;-65
2021/09/13 13:09:28;;;;;;;;;;;;;;;;;;5047105;28;19924;-65
2021/09/13 13:12:12;;;;;;;;;;;;;;;;;;5042979;28;19928;-65
2021/09/13 13:14:59;;;;;;;;;;;;;;;;;;5047987;28;19919;-65
2021/09/13 13:17:47;;;;;;;;;;;;;;;;;;5046385;28;19928;-65
2021/09/13 13:20:31;;;;;;;;;;;;;;;;;;5047717;28;20300;-65
2021/09/13 13:23:15;;;;;;;;;;;;;;;;;;5042870;28;20288;-65
2021/09/13 13:26:01;;;;;;;;;;;;;;;;;;5042765;28;19924;-65
2021/09/13 13:28:45;;;;;;;;;;;;;;;;;;5048296;28;19920;-65
2021/09/13 13:31:29;;;;;;;;;;;;;;;;;;5046823;28;19921;-65
2021/09/13 13:34:14;;;;;;;;;;;;;;;;;;5044987;28;20315;-65
2021/09/13 13:36:58;;;;;;;;;;;;;;;;;;5044576;28;19919;-65
2021/09/13 13:39:45;;;;;;;;;;;;;;;;;;5043557;28;19936;-65
2021/09/13 13:42:29;;;;;;;;;;;;;;;;;;5045906;28;19920;-66
2021/09/13 13:45:13;;;;;;;;;;;;;;;;;;5044355;28;19979;-65
2021/09/13 13:47:58;;;;;;;;;;;;;;;;;;5043703;28;19920;-65
2021/09/13 13:50:42;;;;;;;;;;;;;;;;;;5042446;28;19920;-64
2021/09/13 13:53:27;;;;;;;;;;;;;;;;;;5042508;28;19924;-65
2021/09/13 13:56:11;;;;;;;;;;;;;;;;;;5044951;28;19920;-65
2021/09/13 13:58:55;;;;;;;;;;;;;;;;;;5044134;28;19936;-65
2021/09/13 14:01:40;;;;;;;;;;;;;;;;;;5048190;28;19921;-65
2021/09/13 14:04:24;;;;;;;;;;;;;;;;;;5045898;28;20312;-65
2021/09/13 14:07:09;;;;;;;;;;;;;;;;;;5046136;28;19920;-65
2021/09/13 14:09:53;;;;;;;;;;;;;;;;;;5045706;28;19928;-65
2021/09/13 14:12:37;;;;;;;;;;;;;;;;;;5048894;28;19940;-65
2021/09/13 14:15:21;;;;;;;;;;;;;;;;;;5042327;28;19920;-65
2021/09/13 14:18:06;;;;;;;;;;;;;;;;;;5042638;28;19924;-65
2021/09/13 14:20:50;;;;;;;;;;;;;;;;;;5042343;28;19920;-65
2021/09/13 14:23:36;;;;;;;;;;;;;;;;;;5041577;28;19921;-65
2021/09/13 14:26:20;;;;;;;;;;;;;;;;;;5041877;28;19920;-65
2021/09/13 14:29:04;;;;;;;;;;;;;;;;;;5042370;28;19921;-65
2021/09/13 14:31:48;;;;;;;;;;;;;;;;;;5043275;28;19920;-65
2021/09/13 14:34:33;;;;;;;;;;;;;;;;;;5043321;28;19928;-65
2021/09/13 14:37:18;;;;;;;;;;;;;;;;;;5043457;28;19920;-65
2021/09/13 14:40:03;;;;;;;;;;;;;;;;;;5042866;28;19920;-65
2021/09/13 14:42:48;;;;;;;;;;;;;;;;;;5042042;28;19919;-65
2021/09/13 14:45:33;;;;;;;;;;;;;;;;;;5041660;28;20616;-65
2021/09/13 14:48:17;;;;;;;;;;;;;;;;;;5041017;28;20400;-65
2021/09/13 14:51:03;;;;;;;;;;;;;;;;;;5042479;28;20484;-65
2021/09/13 14:53:47;;;;;;;;;;;;;;;;;;5042379;28;20462;-65
2021/09/13 14:56:32;;;;;;;;;;;;;;;;;;5045766;28;19920;-65
2021/09/13 14:59:17;;;;;;;;;;;;;;;;;;5043057;28;19925;-65
2021/09/13 15:02:01;;;;;;;;;;;;;;;;;;5041493;28;19920;-65
2021/09/13 15:04:46;;;;;;;;;;;;;;;;;;5041096;28;19920;-65
2021/09/13 15:07:30;;;;;;;;;;;;;;;;;;5042433;28;19920;-65
2021/09/13 15:10:14;;;;;;;;;;;;;;;;;;5043060;28;19936;-65
2021/09/13 15:12:59;;;;;;;;;;;;;;;;;;5045470;28;19924;-65
2021/09/13 15:15:43;;;;;;;;;;;;;;;;;;5042904;28;20415;-65
2021/09/13 15:18:27;;;;;;;;;;;;;;;;;;5036039;28;19936;-68
2021/09/13 15:21:11;;;;;;;;;;;;;;;;;;5032509;28;19921;-68
2021/09/13 15:23:55;;;;;;;;;;;;;;;;;;5032426;28;19976;-68
2021/09/13 15:26:40;;;;;;;;;;;;;;;;;;5032410;28;20123;-68
2021/09/13 15:29:24;;;;;;;;;;;;;;;;;;5032425;28;19920;-68
2021/09/13 15:32:08;;;;;;;;;;;;;;;;;;5032288;28;19936;-68
2021/09/13 15:34:52;;;;;;;;;;;;;;;;;;5031941;28;19924;-68
2021/09/13 15:37:36;;;;;;;;;;;;;;;;;;5032287;28;19920;-68
2021/09/13 15:40:20;;;;;;;;;;;;;;;;;;5032298;28;19985;-68
2021/09/13 15:43:05;;;;;;;;;;;;;;;;;;5032352;28;20396;-68
2021/09/13 15:45:49;;;;;;;;;;;;;;;;;;5032094;28;20399;-68
2021/09/13 15:48:35;;;;;;;;;;;;;;;;;;5032256;28;19920;-68
2021/09/13 15:51:20;;;;;;;;;;;;;;;;;;5032171;28;19920;-68
2021/09/13 15:54:04;;;;;;;;;;;;;;;;;;5032187;28;20491;-68
2021/09/13 15:56:48;;;;;;;;;;;;;;;;;;5031986;28;19920;-67
2021/09/13 15:59:33;;;;;;;;;;;;;;;;;;5031611;28;19928;-67
2021/09/13 16:02:17;;;;;;;;;;;;;;;;;;5031705;28;19920;-68
2021/09/13 16:05:03;;;;;;;;;;;;;;;;;;5031803;28;19924;-68
2021/09/13 16:07:48;;;;;;;;;;;;;;;;;;5031835;28;19920;-68
2021/09/13 16:10:32;;;;;;;;;;;;;;;;;;5035793;28;19928;-68
2021/09/13 16:13:16;;;;;;;;;;;;;;;;;;5035676;28;19984;-68
2021/09/13 16:16:02;;;;;;;;;;;;;;;;;;5035578;28;19924;-68
2021/09/13 16:18:47;;;;;;;;;;;;;;;;;;5035708;28;19936;-68
2021/09/13 16:21:32;;;;;;;;;;;;;;;;;;5035633;28;19920;-68
2021/09/13 16:24:23;;;;;;;;;;;;;;;;;;5035427;28;19920;-67
2021/09/13 16:27:08;;;;;;;;;;;;;;;;;;5035179;28;19920;-68
2021/09/13 16:29:52;;;;;;;;;;;;;;;;;;5035478;28;19920;-68
2021/09/13 16:32:36;;;;;;;;;;;;;;;;;;5035117;28;19924;-68
2021/09/13 16:35:20;;;;;;;;;;;;;;;;;;5035235;28;19920;-68
2021/09/13 16:38:04;;;;;;;;;;;;;;;;;;5034957;28;19921;-67
2021/09/13 16:40:48;;;;;;;;;;;;;;;;;;5035169;28;20317;-68
2021/09/13 16:43:32;;;;;;;;;;;;;;;;;;5034995;28;19924;-67
2021/09/13 16:46:17;;;;;;;;;;;;;;;;;;5034952;28;19920;-68
2021/09/13 16:49:01;;;;;;;;;;;;;;;;;;5035240;28;20400;-68
2021/09/13 16:51:45;;;;;;;;;;;;;;;;;;5034782;28;20171;-68
2021/09/13 16:54:29;;;;;;;;;;;;;;;;;;5034743;28;19952;-67
2021/09/13 16:57:14;;;;;;;;;;;;;;;;;;5034715;28;20288;-67
2021/09/13 16:59:58;;;;;;;;;;;;;;;;;;5034406;28;19920;-67
2021/09/13 17:02:43;;;;;;;;;;;;;;;;;;5034694;28;20304;-68
2021/09/13 17:05:28;;;;;;;;;;;;;;;;;;5034367;28;19920;-68
2021/09/13 17:08:12;;;;;;;;;;;;;;;;;;5034312;28;19921;-67
2021/09/13 17:10:59;;;;;;;;;;;;;;;;;;5034584;28;19924;-67
2021/09/13 17:13:44;;;;;;;;;;;;;;;;;;5034668;28;19944;-67
2021/09/13 17:16:30;;;;;;;;;;;;;;;;;;5034800;28;19921;-68
2021/09/13 17:19:14;;;;;;;;;;;;;;;;;;5034012;28;20321;-67
2021/09/13 17:21:59;;;;;;;;;;;;;;;;;;5034407;28;19920;-67
2021/09/13 17:24:43;;;;;;;;;;;;;;;;;;5034426;28;19940;-67
2021/09/13 17:27:27;;;;;;;;;;;;;;;;;;5034116;28;19936;-67
2021/09/13 17:30:11;;;;;;;;;;;;;;;;;;5034263;28;19936;-68
2021/09/13 17:32:55;;;;;;;;;;;;;;;;;;5034040;28;20332;-69
2021/09/13 17:35:40;;;;;;;;;;;;;;;;;;5044595;28;20285;-69
2021/09/13 17:38:25;;;;;;;;;;;;;;;;;;5047323;28;19921;-69
2021/09/13 17:41:12;;;;;;;;;;;;;;;;;;5045687;28;19920;-69
2021/09/13 17:43:56;;;;;;;;;;;;;;;;;;5046391;28;19920;-69
2021/09/13 17:46:41;;;;;;;;;;;;;;;;;;5043769;28;20395;-69
2021/09/13 17:49:25;;;;;;;;;;;;;;;;;;5047347;28;19920;-69
2021/09/13 17:52:10;;;;;;;;;;;;;;;;;;5040779;28;19920;-68
2021/09/13 17:54:54;;;;;;;;;;;;;;;;;;5039038;28;20399;-69
2021/09/13 17:57:39;;;;;;;;;;;;;;;;;;5038723;28;19920;-70
2021/09/13 18:00:23;;;;;;;;;;;;;;;;;;5038929;28;19940;-69
2021/09/13 18:03:07;;;;;;;;;;;;;;;;;;5045107;28;19935;-69
2021/09/13 18:05:51;;;;;;;;;;;;;;;;;;5043069;28;20296;-69
2021/09/13 18:08:35;;;;;;;;;;;;;;;;;;5046510;28;19932;-69
2021/09/13 18:11:22;;;;;;;;;;;;;;;;;;5046468;28;19920;-69
2021/09/13 18:14:06;;;;;;;;;;;;;;;;;;5047476;28;19928;-69
2021/09/13 18:16:50;;;;;;;;;;;;;;;;;;5046757;28;19925;-70
2021/09/13 18:19:35;;;;;;;;;;;;;;;;;;5046181;28;19936;-69
2021/09/13 18:22:20;;;;;;;;;;;;;;;;;;5047382;28;19921;-69
2021/09/13 18:25:04;;;;;;;;;;;;;;;;;;5049273;28;19920;-68
2021/09/13 18:27:48;;;;;;;;;;;;;;;;;;5044522;28;20384;-69
2021/09/13 18:30:32;;;;;;;;;;;;;;;;;;5042505;28;19995;-66
2021/09/13 18:33:17;;;;;;;;;;;;;;;;;;5049149;28;19924;-68
2021/09/13 18:36:01;;;;;;;;;;;;;;;;;;5042988;28;19928;-68
2021/09/13 18:38:45;;;;;;;;;;;;;;;;;;5046121;28;19920;-67
2021/09/13 18:41:29;;;;;;;;;;;;;;;;;;5042348;28;19920;-68
2021/09/13 18:44:13;;;;;;;;;;;;;;;;;;5047357;28;19919;-68
2021/09/13 18:46:58;;;;;;;;;;;;;;;;;;5044494;28;19924;-67
2021/09/13 18:49:42;;;;;;;;;;;;;;;;;;5040568;28;19920;-67
2021/09/13 18:52:26;;;;;;;;;;;;;;;;;;5047275;28;19920;-68
2021/09/13 18:55:11;;;;;;;;;;;;;;;;;;5045383;28;19920;-68
2021/09/13 18:57:55;;;;;;;;;;;;;;;;;;5046998;28;19920;-68